sensor_id;sensor_type;location;lat;lon;timestamp;temperature;humidity
2763;DHT22;1389;51.490;7.338;2023-01-19T00:01:22;2.60;90.10
2763;DHT22;1389;51.490;7.338;2023-01-19T00:03:48;2.60;90.20
2763;DHT22;1389;51.490;7.338;2023-01-19T00:06:14;2.60;90.20
2763;DHT22;1389;51.490;7.338;2023-01-19T00:08:40;2.60;90.20
2763;DHT22;1389;51.490;7.338;2023-01-19T00:11:09;2.60;90.00
2763;DHT22;1389;51.490;7.338;2023-01-19T00:13:35;2.60;90.00
2763;DHT22;1389;51.490;7.338;2023-01-19T00:16:02;2.50;90.30
2763;DHT22;1389;51.490;7.338;2023-01-19T00:18:28;2.60;90.30
2763;DHT22;1389;51.490;7.338;2023-01-19T00:20:54;2.50;90.30
2763;DHT22;1389;51.490;7.338;2023-01-19T00:23:20;2.60;90.40
2763;DHT22;1389;51.490;7.338;2023-01-19T00:25:46;2.60;90.40
2763;DHT22;1389;51.490;7.338;2023-01-19T00:28:15;2.60;90.20
2763;DHT22;1389;51.490;7.338;2023-01-19T00:30:42;2.60;90.30
2763;DHT22;1389;51.490;7.338;2023-01-19T00:33:10;2.60;90.30
2763;DHT22;1389;51.490;7.338;2023-01-19T00:35:36;2.60;90.50
2763;DHT22;1389;51.490;7.338;2023-01-19T00:38:02;2.60;90.50
2763;DHT22;1389;51.490;7.338;2023-01-19T00:40:28;2.60;90.40
2763;DHT22;1389;51.490;7.338;2023-01-19T00:42:54;2.60;90.40
2763;DHT22;1389;51.490;7.338;2023-01-19T00:45:22;2.60;90.40
2763;DHT22;1389;51.490;7.338;2023-01-19T00:47:49;2.60;90.30
2763;DHT22;1389;51.490;7.338;2023-01-19T00:50:23;2.60;90.30
2763;DHT22;1389;51.490;7.338;2023-01-19T00:52:51;2.60;90.30
2763;DHT22;1389;51.490;7.338;2023-01-19T00:55:18;2.60;90.30
2763;DHT22;1389;51.490;7.338;2023-01-19T00:57:44;2.70;90.50
2763;DHT22;1389;51.490;7.338;2023-01-19T01:00:13;2.70;90.50
2763;DHT22;1389;51.490;7.338;2023-01-19T01:02:42;2.70;90.40
2763;DHT22;1389;51.490;7.338;2023-01-19T01:05:09;2.70;90.40
2763;DHT22;1389;51.490;7.338;2023-01-19T01:07:36;2.70;90.40
2763;DHT22;1389;51.490;7.338;2023-01-19T01:10:18;2.70;90.40
2763;DHT22;1389;51.490;7.338;2023-01-19T01:12:45;2.70;90.50
2763;DHT22;1389;51.490;7.338;2023-01-19T01:15:12;2.80;90.30
2763;DHT22;1389;51.490;7.338;2023-01-19T01:17:39;2.80;90.20
2763;DHT22;1389;51.490;7.338;2023-01-19T01:20:20;2.80;90.30
2763;DHT22;1389;51.490;7.338;2023-01-19T01:22:49;2.80;90.40
2763;DHT22;1389;51.490;7.338;2023-01-19T01:25:17;2.80;90.30
2763;DHT22;1389;51.490;7.338;2023-01-19T01:27:44;2.80;90.20
2763;DHT22;1389;51.490;7.338;2023-01-19T01:30:11;2.80;90.10
2763;DHT22;1389;51.490;7.338;2023-01-19T01:32:38;2.80;90.30
2763;DHT22;1389;51.490;7.338;2023-01-19T01:35:05;2.80;90.50
2763;DHT22;1389;51.490;7.338;2023-01-19T01:37:31;2.80;90.50
2763;DHT22;1389;51.490;7.338;2023-01-19T01:39:57;2.80;90.40
2763;DHT22;1389;51.490;7.338;2023-01-19T01:42:33;2.90;90.60
2763;DHT22;1389;51.490;7.338;2023-01-19T01:45:03;2.90;90.60
2763;DHT22;1389;51.490;7.338;2023-01-19T01:47:45;2.90;90.20
2763;DHT22;1389;51.490;7.338;2023-01-19T01:53:10;2.90;90.30
2763;DHT22;1389;51.490;7.338;2023-01-19T01:55:44;2.90;90.30
2763;DHT22;1389;51.490;7.338;2023-01-19T01:58:12;2.90;90.30
2763;DHT22;1389;51.490;7.338;2023-01-19T02:00:40;2.90;90.20
2763;DHT22;1389;51.490;7.338;2023-01-19T02:03:25;2.90;90.20
2763;DHT22;1389;51.490;7.338;2023-01-19T02:05:54;2.90;90.20
2763;DHT22;1389;51.490;7.338;2023-01-19T02:08:47;2.90;90.30
2763;DHT22;1389;51.490;7.338;2023-01-19T02:11:34;2.90;90.40
2763;DHT22;1389;51.490;7.338;2023-01-19T02:14:19;3.00;90.20
2763;DHT22;1389;51.490;7.338;2023-01-19T02:16:45;2.90;90.00
2763;DHT22;1389;51.490;7.338;2023-01-19T02:19:23;2.90;90.00
2763;DHT22;1389;51.490;7.338;2023-01-19T02:21:54;3.00;90.20
2763;DHT22;1389;51.490;7.338;2023-01-19T02:24:22;2.90;90.10
2763;DHT22;1389;51.490;7.338;2023-01-19T02:26:49;2.90;90.10
2763;DHT22;1389;51.490;7.338;2023-01-19T02:29:18;2.90;90.30
2763;DHT22;1389;51.490;7.338;2023-01-19T02:31:45;2.90;90.20
2763;DHT22;1389;51.490;7.338;2023-01-19T02:34:17;2.90;90.20
2763;DHT22;1389;51.490;7.338;2023-01-19T02:36:51;2.90;89.80
2763;DHT22;1389;51.490;7.338;2023-01-19T02:39:20;2.90;89.90
2763;DHT22;1389;51.490;7.338;2023-01-19T02:41:51;2.90;90.10
2763;DHT22;1389;51.490;7.338;2023-01-19T02:44:19;2.90;90.10
2763;DHT22;1389;51.490;7.338;2023-01-19T02:46:45;2.90;90.20
2763;DHT22;1389;51.490;7.338;2023-01-19T02:51:38;2.90;90.20
2763;DHT22;1389;51.490;7.338;2023-01-19T02:54:40;2.90;90.20
2763;DHT22;1389;51.490;7.338;2023-01-19T03:05:32;3.00;89.80
2763;DHT22;1389;51.490;7.338;2023-01-19T03:16:39;2.90;90.30
2763;DHT22;1389;51.490;7.338;2023-01-19T03:19:27;2.90;90.40
2763;DHT22;1389;51.490;7.338;2023-01-19T03:21:57;2.90;90.30
2763;DHT22;1389;51.490;7.338;2023-01-19T03:24:27;2.90;90.30
2763;DHT22;1389;51.490;7.338;2023-01-19T03:26:59;2.90;90.20
2763;DHT22;1389;51.490;7.338;2023-01-19T03:29:30;2.90;90.30
2763;DHT22;1389;51.490;7.338;2023-01-19T03:32:04;2.90;90.30
2763;DHT22;1389;51.490;7.338;2023-01-19T03:34:33;2.90;90.50
2763;DHT22;1389;51.490;7.338;2023-01-19T03:37:02;2.90;90.40
2763;DHT22;1389;51.490;7.338;2023-01-19T03:39:29;2.90;90.30
2763;DHT22;1389;51.490;7.338;2023-01-19T03:41:58;2.90;90.20
2763;DHT22;1389;51.490;7.338;2023-01-19T03:44:27;2.90;90.10
2763;DHT22;1389;51.490;7.338;2023-01-19T03:46:55;2.90;90.00
2763;DHT22;1389;51.490;7.338;2023-01-19T03:51:49;2.90;90.00
2763;DHT22;1389;51.490;7.338;2023-01-19T03:54:16;3.00;89.90
2763;DHT22;1389;51.490;7.338;2023-01-19T03:56:42;2.90;89.80
2763;DHT22;1389;51.490;7.338;2023-01-19T03:59:09;3.00;89.60
2763;DHT22;1389;51.490;7.338;2023-01-19T04:01:35;3.00;89.20
2763;DHT22;1389;51.490;7.338;2023-01-19T04:06:28;3.00;89.60
2763;DHT22;1389;51.490;7.338;2023-01-19T04:08:54;3.00;89.60
2763;DHT22;1389;51.490;7.338;2023-01-19T04:11:20;3.00;89.60
2763;DHT22;1389;51.490;7.338;2023-01-19T04:13:46;3.00;89.80
2763;DHT22;1389;51.490;7.338;2023-01-19T04:16:12;3.00;89.50
2763;DHT22;1389;51.490;7.338;2023-01-19T04:18:39;3.10;89.60
2763;DHT22;1389;51.490;7.338;2023-01-19T04:21:06;3.10;89.70
2763;DHT22;1389;51.490;7.338;2023-01-19T04:23:33;3.10;89.80
2763;DHT22;1389;51.490;7.338;2023-01-19T04:26:02;3.10;89.90
2763;DHT22;1389;51.490;7.338;2023-01-19T04:28:29;3.10;89.70
2763;DHT22;1389;51.490;7.338;2023-01-19T04:30:56;3.10;89.80
2763;DHT22;1389;51.490;7.338;2023-01-19T04:33:22;3.10;89.90
2763;DHT22;1389;51.490;7.338;2023-01-19T04:35:49;3.00;90.00
2763;DHT22;1389;51.490;7.338;2023-01-19T04:38:16;3.00;90.20
2763;DHT22;1389;51.490;7.338;2023-01-19T04:40:42;3.00;90.30
2763;DHT22;1389;51.490;7.338;2023-01-19T04:43:08;3.00;90.50
2763;DHT22;1389;51.490;7.338;2023-01-19T04:48:02;2.90;91.20
2763;DHT22;1389;51.490;7.338;2023-01-19T04:50:29;2.80;91.70
2763;DHT22;1389;51.490;7.338;2023-01-19T04:55:22;2.70;92.20
2763;DHT22;1389;51.490;7.338;2023-01-19T04:57:48;2.60;92.50
2763;DHT22;1389;51.490;7.338;2023-01-19T05:00:14;2.50;92.90
2763;DHT22;1389;51.490;7.338;2023-01-19T05:02:41;2.30;93.60
2763;DHT22;1389;51.490;7.338;2023-01-19T05:05:09;2.30;93.60
2763;DHT22;1389;51.490;7.338;2023-01-19T05:07:35;2.30;94.00
2763;DHT22;1389;51.490;7.338;2023-01-19T05:10:02;2.20;94.30
2763;DHT22;1389;51.490;7.338;2023-01-19T05:12:28;2.10;95.00
2763;DHT22;1389;51.490;7.338;2023-01-19T05:17:20;2.10;95.40
2763;DHT22;1389;51.490;7.338;2023-01-19T05:19:46;2.10;95.60
2763;DHT22;1389;51.490;7.338;2023-01-19T05:22:14;2.10;95.80
2763;DHT22;1389;51.490;7.338;2023-01-19T05:27:07;2.10;95.80
2763;DHT22;1389;51.490;7.338;2023-01-19T05:29:33;2.10;95.90
2763;DHT22;1389;51.490;7.338;2023-01-19T05:31:59;2.10;96.10
2763;DHT22;1389;51.490;7.338;2023-01-19T05:34:26;2.10;96.10
2763;DHT22;1389;51.490;7.338;2023-01-19T05:36:54;2.10;95.80
2763;DHT22;1389;51.490;7.338;2023-01-19T05:39:20;2.10;95.80
2763;DHT22;1389;51.490;7.338;2023-01-19T05:44:13;2.10;95.90
2763;DHT22;1389;51.490;7.338;2023-01-19T05:46:39;2.10;96.10
2763;DHT22;1389;51.490;7.338;2023-01-19T05:49:06;2.10;96.10
2763;DHT22;1389;51.490;7.338;2023-01-19T05:51:36;2.10;96.30
2763;DHT22;1389;51.490;7.338;2023-01-19T05:54:06;2.10;96.30
2763;DHT22;1389;51.490;7.338;2023-01-19T05:56:32;2.20;96.40
2763;DHT22;1389;51.490;7.338;2023-01-19T05:58:59;2.10;96.40
2763;DHT22;1389;51.490;7.338;2023-01-19T06:01:25;2.10;96.50
2763;DHT22;1389;51.490;7.338;2023-01-19T06:03:52;2.10;96.40
2763;DHT22;1389;51.490;7.338;2023-01-19T06:06:18;2.10;96.50
2763;DHT22;1389;51.490;7.338;2023-01-19T06:08:45;2.10;96.60
2763;DHT22;1389;51.490;7.338;2023-01-19T06:11:11;2.10;96.50
2763;DHT22;1389;51.490;7.338;2023-01-19T06:13:37;2.10;96.70
2763;DHT22;1389;51.490;7.338;2023-01-19T06:16:07;2.10;96.70
2763;DHT22;1389;51.490;7.338;2023-01-19T06:18:33;2.10;96.60
2763;DHT22;1389;51.490;7.338;2023-01-19T06:21:07;2.10;96.60
2763;DHT22;1389;51.490;7.338;2023-01-19T06:23:34;2.10;96.60
2763;DHT22;1389;51.490;7.338;2023-01-19T06:26:02;2.10;96.50
2763;DHT22;1389;51.490;7.338;2023-01-19T06:28:28;2.10;96.70
2763;DHT22;1389;51.490;7.338;2023-01-19T06:30:55;2.00;96.70
2763;DHT22;1389;51.490;7.338;2023-01-19T06:33:22;2.00;97.00
2763;DHT22;1389;51.490;7.338;2023-01-19T06:35:50;2.00;97.30
2763;DHT22;1389;51.490;7.338;2023-01-19T06:38:16;2.00;97.30
2763;DHT22;1389;51.490;7.338;2023-01-19T06:40:53;1.90;97.10
2763;DHT22;1389;51.490;7.338;2023-01-19T06:43:20;1.90;97.40
2763;DHT22;1389;51.490;7.338;2023-01-19T06:45:47;1.90;97.50
2763;DHT22;1389;51.490;7.338;2023-01-19T06:48:13;1.90;97.70
2763;DHT22;1389;51.490;7.338;2023-01-19T06:50:40;1.90;97.90
2763;DHT22;1389;51.490;7.338;2023-01-19T06:53:06;1.80;97.90
2763;DHT22;1389;51.490;7.338;2023-01-19T06:55:32;1.80;98.00
2763;DHT22;1389;51.490;7.338;2023-01-19T06:58:00;1.80;98.40
2763;DHT22;1389;51.490;7.338;2023-01-19T07:00:27;1.80;98.40
2763;DHT22;1389;51.490;7.338;2023-01-19T07:02:53;1.80;98.40
2763;DHT22;1389;51.490;7.338;2023-01-19T07:05:19;1.90;98.20
2763;DHT22;1389;51.490;7.338;2023-01-19T07:07:51;1.80;98.20
2763;DHT22;1389;51.490;7.338;2023-01-19T07:10:17;1.70;98.70
2763;DHT22;1389;51.490;7.338;2023-01-19T07:12:43;1.70;98.80
2763;DHT22;1389;51.490;7.338;2023-01-19T07:15:13;1.70;99.00
2763;DHT22;1389;51.490;7.338;2023-01-19T07:17:39;1.70;99.30
2763;DHT22;1389;51.490;7.338;2023-01-19T07:20:10;1.80;99.30
2763;DHT22;1389;51.490;7.338;2023-01-19T07:22:42;1.80;99.30
2763;DHT22;1389;51.490;7.338;2023-01-19T07:25:10;1.80;99.30
2763;DHT22;1389;51.490;7.338;2023-01-19T07:27:36;1.70;99.30
2763;DHT22;1389;51.490;7.338;2023-01-19T07:30:03;1.70;99.30
2763;DHT22;1389;51.490;7.338;2023-01-19T07:32:29;1.70;99.30
2763;DHT22;1389;51.490;7.338;2023-01-19T07:34:55;1.80;99.30
2763;DHT22;1389;51.490;7.338;2023-01-19T07:37:21;1.80;99.30
2763;DHT22;1389;51.490;7.338;2023-01-19T07:42:14;1.80;99.30
2763;DHT22;1389;51.490;7.338;2023-01-19T07:44:40;1.80;99.30
2763;DHT22;1389;51.490;7.338;2023-01-19T07:47:06;1.90;99.30
2763;DHT22;1389;51.490;7.338;2023-01-19T07:49:35;1.90;99.30
2763;DHT22;1389;51.490;7.338;2023-01-19T07:52:01;1.90;99.30
2763;DHT22;1389;51.490;7.338;2023-01-19T07:54:27;1.90;99.30
2763;DHT22;1389;51.490;7.338;2023-01-19T07:56:53;1.90;99.30
2763;DHT22;1389;51.490;7.338;2023-01-19T07:59:20;1.90;99.30
2763;DHT22;1389;51.490;7.338;2023-01-19T08:01:46;1.90;99.30
2763;DHT22;1389;51.490;7.338;2023-01-19T08:04:12;1.90;99.30
2763;DHT22;1389;51.490;7.338;2023-01-19T08:06:39;1.90;99.30
2763;DHT22;1389;51.490;7.338;2023-01-19T08:09:05;1.90;99.30
2763;DHT22;1389;51.490;7.338;2023-01-19T08:11:32;1.90;99.30
2763;DHT22;1389;51.490;7.338;2023-01-19T08:13:58;2.00;99.30
2763;DHT22;1389;51.490;7.338;2023-01-19T08:16:25;1.90;99.30
2763;DHT22;1389;51.490;7.338;2023-01-19T08:18:52;1.90;99.30
2763;DHT22;1389;51.490;7.338;2023-01-19T08:21:19;1.90;99.30
2763;DHT22;1389;51.490;7.338;2023-01-19T08:23:53;1.90;99.30
2763;DHT22;1389;51.490;7.338;2023-01-19T08:26:33;1.90;99.30
2763;DHT22;1389;51.490;7.338;2023-01-19T08:29:02;1.90;99.30
2763;DHT22;1389;51.490;7.338;2023-01-19T08:31:29;1.90;99.30
2763;DHT22;1389;51.490;7.338;2023-01-19T08:33:55;1.90;99.30
2763;DHT22;1389;51.490;7.338;2023-01-19T08:36:21;2.00;99.30
2763;DHT22;1389;51.490;7.338;2023-01-19T08:38:49;2.00;99.30
2763;DHT22;1389;51.490;7.338;2023-01-19T08:41:15;2.00;99.30
2763;DHT22;1389;51.490;7.338;2023-01-19T08:43:42;2.00;99.30
2763;DHT22;1389;51.490;7.338;2023-01-19T08:46:10;2.00;99.30
2763;DHT22;1389;51.490;7.338;2023-01-19T08:48:36;2.00;99.30
2763;DHT22;1389;51.490;7.338;2023-01-19T08:51:04;2.00;99.30
2763;DHT22;1389;51.490;7.338;2023-01-19T08:55:57;2.00;99.30
2763;DHT22;1389;51.490;7.338;2023-01-19T08:58:26;2.00;99.30
2763;DHT22;1389;51.490;7.338;2023-01-19T09:00:53;2.00;99.30
2763;DHT22;1389;51.490;7.338;2023-01-19T09:03:19;2.00;99.30
2763;DHT22;1389;51.490;7.338;2023-01-19T09:05:47;2.00;99.30
2763;DHT22;1389;51.490;7.338;2023-01-19T09:08:13;2.00;99.30
2763;DHT22;1389;51.490;7.338;2023-01-19T09:10:45;2.00;99.30
2763;DHT22;1389;51.490;7.338;2023-01-19T09:13:12;2.00;99.30
2763;DHT22;1389;51.490;7.338;2023-01-19T09:15:39;2.10;99.30
2763;DHT22;1389;51.490;7.338;2023-01-19T09:18:07;2.10;99.30
2763;DHT22;1389;51.490;7.338;2023-01-19T09:20:35;2.10;99.30
2763;DHT22;1389;51.490;7.338;2023-01-19T09:23:04;2.10;99.30
2763;DHT22;1389;51.490;7.338;2023-01-19T09:25:30;2.10;99.30
2763;DHT22;1389;51.490;7.338;2023-01-19T09:27:58;2.10;99.30
2763;DHT22;1389;51.490;7.338;2023-01-19T09:30:24;2.10;99.30
2763;DHT22;1389;51.490;7.338;2023-01-19T09:32:52;2.10;99.30
2763;DHT22;1389;51.490;7.338;2023-01-19T09:35:18;2.10;99.30
2763;DHT22;1389;51.490;7.338;2023-01-19T09:37:45;2.20;99.30
2763;DHT22;1389;51.490;7.338;2023-01-19T09:40:13;2.20;99.30
2763;DHT22;1389;51.490;7.338;2023-01-19T09:43:10;2.20;99.30
2763;DHT22;1389;51.490;7.338;2023-01-19T09:45:52;2.20;99.30
2763;DHT22;1389;51.490;7.338;2023-01-19T09:48:58;2.20;99.30
2763;DHT22;1389;51.490;7.338;2023-01-19T09:51:38;2.30;99.30
2763;DHT22;1389;51.490;7.338;2023-01-19T09:54:15;2.20;99.30
2763;DHT22;1389;51.490;7.338;2023-01-19T09:56:43;2.20;99.30
2763;DHT22;1389;51.490;7.338;2023-01-19T09:59:22;2.30;99.30
2763;DHT22;1389;51.490;7.338;2023-01-19T10:02:04;2.30;99.30
2763;DHT22;1389;51.490;7.338;2023-01-19T10:07:57;2.30;99.30
2763;DHT22;1389;51.490;7.338;2023-01-19T10:10:30;2.30;99.30
2763;DHT22;1389;51.490;7.338;2023-01-19T10:15:55;2.30;99.30
2763;DHT22;1389;51.490;7.338;2023-01-19T10:18:28;2.30;99.30
2763;DHT22;1389;51.490;7.338;2023-01-19T10:21:09;2.30;99.30
2763;DHT22;1389;51.490;7.338;2023-01-19T10:26:45;2.30;99.30
2763;DHT22;1389;51.490;7.338;2023-01-19T10:29:30;2.30;99.30
2763;DHT22;1389;51.490;7.338;2023-01-19T10:32:07;2.30;99.30
2763;DHT22;1389;51.490;7.338;2023-01-19T10:34:34;2.40;99.30
2763;DHT22;1389;51.490;7.338;2023-01-19T10:37:04;2.40;99.30
2763;DHT22;1389;51.490;7.338;2023-01-19T10:41:58;2.40;99.30
2763;DHT22;1389;51.490;7.338;2023-01-19T10:44:28;2.40;99.30
2763;DHT22;1389;51.490;7.338;2023-01-19T10:46:56;2.30;99.30
2763;DHT22;1389;51.490;7.338;2023-01-19T10:49:36;2.30;99.30
2763;DHT22;1389;51.490;7.338;2023-01-19T10:52:06;2.40;99.30
2763;DHT22;1389;51.490;7.338;2023-01-19T10:54:34;2.40;99.30
2763;DHT22;1389;51.490;7.338;2023-01-19T10:57:07;2.40;99.30
2763;DHT22;1389;51.490;7.338;2023-01-19T10:59:47;2.40;99.30
2763;DHT22;1389;51.490;7.338;2023-01-19T11:04:42;2.30;99.30
2763;DHT22;1389;51.490;7.338;2023-01-19T11:07:22;2.40;99.30
2763;DHT22;1389;51.490;7.338;2023-01-19T11:13:03;2.40;99.30
2763;DHT22;1389;51.490;7.338;2023-01-19T11:17:58;2.40;99.30
2763;DHT22;1389;51.490;7.338;2023-01-19T11:20:32;2.50;99.30
2763;DHT22;1389;51.490;7.338;2023-01-19T11:23:28;2.50;99.30
2763;DHT22;1389;51.490;7.338;2023-01-19T11:25:57;2.50;99.30
2763;DHT22;1389;51.490;7.338;2023-01-19T11:28:44;2.50;99.30
2763;DHT22;1389;51.490;7.338;2023-01-19T11:33:51;2.50;99.30
2763;DHT22;1389;51.490;7.338;2023-01-19T11:36:34;2.60;99.30
2763;DHT22;1389;51.490;7.338;2023-01-19T11:39:26;2.50;99.30
2763;DHT22;1389;51.490;7.338;2023-01-19T11:41:55;2.50;99.30
2763;DHT22;1389;51.490;7.338;2023-01-19T11:47:00;2.50;99.30
2763;DHT22;1389;51.490;7.338;2023-01-19T11:49:46;2.60;99.30
2763;DHT22;1389;51.490;7.338;2023-01-19T11:57:38;2.60;99.30
2763;DHT22;1389;51.490;7.338;2023-01-19T12:00:40;2.60;99.30
2763;DHT22;1389;51.490;7.338;2023-01-19T12:03:13;2.70;99.30
2763;DHT22;1389;51.490;7.338;2023-01-19T12:05:45;2.70;99.30
2763;DHT22;1389;51.490;7.338;2023-01-19T12:08:16;2.70;99.30
2763;DHT22;1389;51.490;7.338;2023-01-19T12:10:46;2.70;99.30
2763;DHT22;1389;51.490;7.338;2023-01-19T12:13:24;2.70;99.30
2763;DHT22;1389;51.490;7.338;2023-01-19T12:16:18;2.80;99.30
2763;DHT22;1389;51.490;7.338;2023-01-19T12:19:05;2.80;99.30
2763;DHT22;1389;51.490;7.338;2023-01-19T12:21:36;2.80;99.30
2763;DHT22;1389;51.490;7.338;2023-01-19T12:24:26;2.80;99.30
2763;DHT22;1389;51.490;7.338;2023-01-19T12:27:00;2.80;99.30
2763;DHT22;1389;51.490;7.338;2023-01-19T12:29:33;2.80;99.30
2763;DHT22;1389;51.490;7.338;2023-01-19T12:34:41;2.80;99.30
2763;DHT22;1389;51.490;7.338;2023-01-19T12:37:32;2.80;99.30
2763;DHT22;1389;51.490;7.338;2023-01-19T12:40:12;2.80;99.30
2763;DHT22;1389;51.490;7.338;2023-01-19T12:42:44;2.90;99.30
2763;DHT22;1389;51.490;7.338;2023-01-19T12:45:19;2.90;99.30
2763;DHT22;1389;51.490;7.338;2023-01-19T12:47:50;2.90;99.30
2763;DHT22;1389;51.490;7.338;2023-01-19T12:50:18;2.90;99.30
2763;DHT22;1389;51.490;7.338;2023-01-19T12:52:53;2.90;99.30
2763;DHT22;1389;51.490;7.338;2023-01-19T12:55:34;2.80;99.30
2763;DHT22;1389;51.490;7.338;2023-01-19T13:00:44;2.90;99.30
2763;DHT22;1389;51.490;7.338;2023-01-19T13:21:39;3.20;99.30
2763;DHT22;1389;51.490;7.338;2023-01-19T13:24:16;3.10;99.30
2763;DHT22;1389;51.490;7.338;2023-01-19T13:29:29;3.10;99.30
2763;DHT22;1389;51.490;7.338;2023-01-19T13:32:01;3.20;99.30
2763;DHT22;1389;51.490;7.338;2023-01-19T13:34:55;3.20;99.20
2763;DHT22;1389;51.490;7.338;2023-01-19T13:37:27;3.20;99.20
2763;DHT22;1389;51.490;7.338;2023-01-19T13:39:55;3.20;98.80
2763;DHT22;1389;51.490;7.338;2023-01-19T13:42:33;3.20;98.80
2763;DHT22;1389;51.490;7.338;2023-01-19T13:45:29;3.10;99.00
2763;DHT22;1389;51.490;7.338;2023-01-19T13:47:57;3.20;99.20
2763;DHT22;1389;51.490;7.338;2023-01-19T13:50:34;3.20;98.90
2763;DHT22;1389;51.490;7.338;2023-01-19T13:53:00;3.20;98.90
2763;DHT22;1389;51.490;7.338;2023-01-19T13:55:30;3.10;99.20
2763;DHT22;1389;51.490;7.338;2023-01-19T13:57:56;3.10;99.00
2763;DHT22;1389;51.490;7.338;2023-01-19T14:00:27;3.20;99.00
2763;DHT22;1389;51.490;7.338;2023-01-19T14:03:20;3.10;98.80
2763;DHT22;1389;51.490;7.338;2023-01-19T14:05:53;3.10;98.70
2763;DHT22;1389;51.490;7.338;2023-01-19T14:08:20;3.20;98.80
2763;DHT22;1389;51.490;7.338;2023-01-19T14:11:00;3.20;99.00
2763;DHT22;1389;51.490;7.338;2023-01-19T14:13:32;3.20;98.90
2763;DHT22;1389;51.490;7.338;2023-01-19T14:16:04;3.20;99.10
2763;DHT22;1389;51.490;7.338;2023-01-19T14:18:32;3.30;99.10
2763;DHT22;1389;51.490;7.338;2023-01-19T14:21:09;3.30;98.70
2763;DHT22;1389;51.490;7.338;2023-01-19T14:24:16;3.30;98.80
2763;DHT22;1389;51.490;7.338;2023-01-19T14:26:48;3.20;98.50
2763;DHT22;1389;51.490;7.338;2023-01-19T14:29:27;3.30;98.70
2763;DHT22;1389;51.490;7.338;2023-01-19T14:34:40;3.30;98.50
2763;DHT22;1389;51.490;7.338;2023-01-19T14:37:18;3.30;98.50
2763;DHT22;1389;51.490;7.338;2023-01-19T14:40:12;3.30;98.50
2763;DHT22;1389;51.490;7.338;2023-01-19T14:47:59;3.30;98.50
2763;DHT22;1389;51.490;7.338;2023-01-19T14:50:30;3.30;98.20
2763;DHT22;1389;51.490;7.338;2023-01-19T14:53:17;3.30;98.10
2763;DHT22;1389;51.490;7.338;2023-01-19T14:55:53;3.30;98.30
2763;DHT22;1389;51.490;7.338;2023-01-19T14:58:21;3.30;98.40
2763;DHT22;1389;51.490;7.338;2023-01-19T15:00:49;3.40;97.90
2763;DHT22;1389;51.490;7.338;2023-01-19T15:03:15;3.40;97.70
2763;DHT22;1389;51.490;7.338;2023-01-19T15:05:45;3.40;97.80
2763;DHT22;1389;51.490;7.338;2023-01-19T15:08:15;3.40;97.70
2763;DHT22;1389;51.490;7.338;2023-01-19T15:10:42;3.30;97.80
2763;DHT22;1389;51.490;7.338;2023-01-19T15:13:18;3.30;97.60
2763;DHT22;1389;51.490;7.338;2023-01-19T15:15:44;3.40;97.70
2763;DHT22;1389;51.490;7.338;2023-01-19T15:18:16;3.40;97.70
2763;DHT22;1389;51.490;7.338;2023-01-19T15:20:44;3.40;97.80
2763;DHT22;1389;51.490;7.338;2023-01-19T15:23:10;3.40;97.70
2763;DHT22;1389;51.490;7.338;2023-01-19T15:25:37;3.40;97.40
2763;DHT22;1389;51.490;7.338;2023-01-19T15:28:16;3.40;97.30
2763;DHT22;1389;51.490;7.338;2023-01-19T15:30:43;3.40;97.30
2763;DHT22;1389;51.490;7.338;2023-01-19T15:33:19;3.40;97.10
2763;DHT22;1389;51.490;7.338;2023-01-19T15:35:46;3.30;97.10
2763;DHT22;1389;51.490;7.338;2023-01-19T15:38:12;3.30;97.10
2763;DHT22;1389;51.490;7.338;2023-01-19T15:40:38;3.30;97.30
2763;DHT22;1389;51.490;7.338;2023-01-19T15:43:04;3.30;97.30
2763;DHT22;1389;51.490;7.338;2023-01-19T15:48:05;3.30;97.40
2763;DHT22;1389;51.490;7.338;2023-01-19T15:50:33;3.30;97.40
2763;DHT22;1389;51.490;7.338;2023-01-19T15:53:00;3.30;97.40
2763;DHT22;1389;51.490;7.338;2023-01-19T15:55:27;3.30;97.50
2763;DHT22;1389;51.490;7.338;2023-01-19T15:57:53;3.30;97.50
2763;DHT22;1389;51.490;7.338;2023-01-19T16:00:23;3.20;97.50
2763;DHT22;1389;51.490;7.338;2023-01-19T16:02:49;3.30;97.50
2763;DHT22;1389;51.490;7.338;2023-01-19T16:05:16;3.20;97.20
2763;DHT22;1389;51.490;7.338;2023-01-19T16:07:42;3.20;97.00
2763;DHT22;1389;51.490;7.338;2023-01-19T16:10:09;3.20;97.00
2763;DHT22;1389;51.490;7.338;2023-01-19T16:12:35;3.20;97.10
2763;DHT22;1389;51.490;7.338;2023-01-19T16:15:01;3.20;97.10
2763;DHT22;1389;51.490;7.338;2023-01-19T16:17:27;3.10;97.10
2763;DHT22;1389;51.490;7.338;2023-01-19T16:19:53;3.10;97.20
2763;DHT22;1389;51.490;7.338;2023-01-19T16:22:22;3.10;97.20
2763;DHT22;1389;51.490;7.338;2023-01-19T16:24:48;3.00;97.10
2763;DHT22;1389;51.490;7.338;2023-01-19T16:27:14;3.00;97.00
2763;DHT22;1389;51.490;7.338;2023-01-19T16:29:40;3.00;97.00
2763;DHT22;1389;51.490;7.338;2023-01-19T16:32:06;3.00;97.10
2763;DHT22;1389;51.490;7.338;2023-01-19T16:34:32;3.00;97.00
2763;DHT22;1389;51.490;7.338;2023-01-19T16:36:58;3.00;96.90
2763;DHT22;1389;51.490;7.338;2023-01-19T16:39:24;3.00;96.60
2763;DHT22;1389;51.490;7.338;2023-01-19T16:41:50;3.00;96.20
2763;DHT22;1389;51.490;7.338;2023-01-19T16:44:16;2.90;96.20
2763;DHT22;1389;51.490;7.338;2023-01-19T16:46:44;3.00;96.00
2763;DHT22;1389;51.490;7.338;2023-01-19T16:49:15;2.90;95.80
2763;DHT22;1389;51.490;7.338;2023-01-19T16:51:41;2.90;95.90
2763;DHT22;1389;51.490;7.338;2023-01-19T16:54:15;2.90;95.90
2763;DHT22;1389;51.490;7.338;2023-01-19T16:56:41;2.90;96.10
2763;DHT22;1389;51.490;7.338;2023-01-19T16:59:10;2.90;96.10
2763;DHT22;1389;51.490;7.338;2023-01-19T17:01:37;2.90;96.20
2763;DHT22;1389;51.490;7.338;2023-01-19T17:04:03;2.90;96.10
2763;DHT22;1389;51.490;7.338;2023-01-19T17:06:30;2.80;96.00
2763;DHT22;1389;51.490;7.338;2023-01-19T17:08:57;2.90;95.90
2763;DHT22;1389;51.490;7.338;2023-01-19T17:11:25;2.90;95.60
2763;DHT22;1389;51.490;7.338;2023-01-19T17:14:00;2.80;95.80
2763;DHT22;1389;51.490;7.338;2023-01-19T17:16:29;2.90;95.80
2763;DHT22;1389;51.490;7.338;2023-01-19T17:18:56;2.80;95.90
2763;DHT22;1389;51.490;7.338;2023-01-19T17:21:23;2.90;96.30
2763;DHT22;1389;51.490;7.338;2023-01-19T17:23:51;2.80;96.20
2763;DHT22;1389;51.490;7.338;2023-01-19T17:26:22;2.90;96.20
2763;DHT22;1389;51.490;7.338;2023-01-19T17:28:50;2.90;96.00
2763;DHT22;1389;51.490;7.338;2023-01-19T17:31:18;2.80;96.00
2763;DHT22;1389;51.490;7.338;2023-01-19T17:33:46;2.80;96.30
2763;DHT22;1389;51.490;7.338;2023-01-19T17:36:17;2.80;96.40
2763;DHT22;1389;51.490;7.338;2023-01-19T17:38:48;2.80;96.40
2763;DHT22;1389;51.490;7.338;2023-01-19T17:41:15;2.80;96.50
2763;DHT22;1389;51.490;7.338;2023-01-19T17:43:41;2.80;96.60
2763;DHT22;1389;51.490;7.338;2023-01-19T17:46:08;2.80;96.80
2763;DHT22;1389;51.490;7.338;2023-01-19T17:48:34;2.70;96.80
2763;DHT22;1389;51.490;7.338;2023-01-19T17:51:05;2.70;96.60
2763;DHT22;1389;51.490;7.338;2023-01-19T17:53:32;2.70;96.70
2763;DHT22;1389;51.490;7.338;2023-01-19T17:56:06;2.60;96.60
2763;DHT22;1389;51.490;7.338;2023-01-19T17:58:32;2.60;96.70
2763;DHT22;1389;51.490;7.338;2023-01-19T18:01:13;2.50;96.90
2763;DHT22;1389;51.490;7.338;2023-01-19T18:03:40;2.50;97.00
2763;DHT22;1389;51.490;7.338;2023-01-19T18:06:06;2.50;97.00
2763;DHT22;1389;51.490;7.338;2023-01-19T18:08:33;2.40;97.00
2763;DHT22;1389;51.490;7.338;2023-01-19T18:11:01;2.40;97.10
2763;DHT22;1389;51.490;7.338;2023-01-19T18:13:28;2.40;97.20
2763;DHT22;1389;51.490;7.338;2023-01-19T18:16:05;2.40;97.20
2763;DHT22;1389;51.490;7.338;2023-01-19T18:18:33;2.30;97.30
2763;DHT22;1389;51.490;7.338;2023-01-19T18:21:04;2.30;97.30
2763;DHT22;1389;51.490;7.338;2023-01-19T18:23:31;2.40;97.30
2763;DHT22;1389;51.490;7.338;2023-01-19T18:26:20;2.40;97.20
2763;DHT22;1389;51.490;7.338;2023-01-19T18:28:47;2.50;97.30